createdAt,value
2022-09-21T00:01:52.924Z,1.20
2022-09-21T00:04:58.795Z,1.33
2022-09-21T00:08:06.723Z,1.50
2022-09-21T00:11:14.454Z,1.73
2022-09-21T00:14:20.225Z,1.50
2022-09-21T00:17:25.812Z,1.50
2022-09-21T00:20:31.478Z,2.40
2022-09-21T00:23:38.205Z,1.73
2022-09-21T00:26:43.737Z,1.77
2022-09-21T00:29:49.381Z,1.80
2022-09-21T00:32:55.249Z,1.30
2022-09-21T00:36:06.073Z,1.30
2022-09-21T00:39:11.641Z,1.60
2022-09-21T00:42:23.261Z,1.80
2022-09-21T00:45:28.577Z,1.63
2022-09-21T00:48:34.474Z,1.90
2022-09-21T00:51:40.044Z,1.60
2022-09-21T00:54:53.689Z,1.58
2022-09-21T00:58:10.429Z,1.35
2022-09-21T01:01:18.759Z,1.70
2022-09-21T01:04:24.252Z,1.60
2022-09-21T01:07:33.859Z,1.65
2022-09-21T01:11:03.877Z,1.90
2022-09-21T01:14:42.157Z,1.70
2022-09-21T01:18:10.941Z,1.45
2022-09-21T01:21:24.213Z,1.80
2022-09-21T01:24:52.910Z,2.00
2022-09-21T01:28:30.667Z,2.13
2022-09-21T01:31:45.950Z,2.08
2022-09-21T01:34:54.675Z,2.65
2022-09-21T01:38:04.186Z,2.35
2022-09-21T01:41:13.973Z,2.30
2022-09-21T01:44:27.889Z,2.30
2022-09-21T01:47:35.837Z,2.28
2022-09-21T01:50:46.204Z,1.90
2022-09-21T01:53:56.804Z,2.20
2022-09-21T01:57:18.655Z,2.43
2022-09-21T02:00:25.500Z,1.92
2022-09-21T02:03:42.264Z,1.95
2022-09-21T02:06:50.251Z,1.70
2022-09-21T02:09:57.014Z,1.15
2022-09-21T02:13:05.711Z,1.15
2022-09-21T02:16:39.927Z,1.33
2022-09-21T02:19:56.319Z,0.80
2022-09-21T02:23:28.688Z,0.82
2022-09-21T02:26:48.511Z,1.00
2022-09-21T02:30:06.021Z,1.20
2022-09-21T02:33:35.280Z,1.00
2022-09-21T02:36:48.753Z,1.02
2022-09-21T02:40:24.462Z,1.75
2022-09-21T02:43:37.703Z,0.88
2022-09-21T02:46:55.054Z,0.95
2022-09-21T02:50:11.190Z,0.82
2022-09-21T02:53:23.821Z,1.00
2022-09-21T02:56:31.927Z,0.82
2022-09-21T02:59:37.213Z,0.80
2022-09-21T03:02:45.492Z,0.70
2022-09-21T03:05:54.099Z,1.08
2022-09-21T03:08:59.743Z,0.73
2022-09-21T03:12:06.162Z,0.73
2022-09-21T03:15:11.544Z,0.65
2022-09-21T03:18:17.112Z,0.60
2022-09-21T03:21:22.860Z,0.60
2022-09-21T03:24:45.905Z,0.90
2022-09-21T03:27:54.028Z,0.57
2022-09-21T03:30:59.345Z,0.60
2022-09-21T03:34:04.519Z,0.57
2022-09-21T03:37:11.283Z,0.80
2022-09-21T03:40:18.065Z,0.70
2022-09-21T03:43:23.802Z,0.82
2022-09-21T03:46:29.691Z,0.80
2022-09-21T03:49:35.279Z,1.17
2022-09-21T03:52:41.349Z,0.95
2022-09-21T03:55:46.899Z,0.98
2022-09-21T03:58:52.187Z,1.27
2022-09-21T04:01:57.568Z,0.70
2022-09-21T04:05:02.739Z,0.80
2022-09-21T04:08:10.422Z,0.68
2022-09-21T04:11:19.033Z,0.65
2022-09-21T04:14:24.373Z,0.68
2022-09-21T04:17:31.736Z,0.77
2022-09-21T04:20:37.122Z,0.77
2022-09-21T04:23:42.603Z,0.60
2022-09-21T04:26:49.023Z,0.60
2022-09-21T04:29:54.492Z,0.73
2022-09-21T04:33:00.483Z,0.80
2022-09-21T04:36:06.916Z,0.88
2022-09-21T04:39:12.428Z,0.68
2022-09-21T04:42:17.637Z,0.80
2022-09-21T04:45:24.200Z,0.90
2022-09-21T04:48:29.401Z,1.00
2022-09-21T04:51:35.204Z,1.00
2022-09-21T04:54:40.326Z,0.93
2022-09-21T04:57:45.473Z,0.90
2022-09-21T05:00:52.263Z,1.40
2022-09-21T05:04:03.070Z,0.77
2022-09-21T05:07:08.884Z,1.48
2022-09-21T05:10:15.013Z,0.80
2022-09-21T05:13:19.995Z,1.05
2022-09-21T05:16:25.642Z,0.80
2022-09-21T05:19:31.426Z,1.00
2022-09-21T05:22:36.745Z,1.40
2022-09-21T05:25:44.415Z,0.80
2022-09-21T05:28:50.363Z,0.75
2022-09-21T05:32:06.863Z,1.17
2022-09-21T05:35:38.153Z,0.95
2022-09-21T05:41:49.937Z,0.88
2022-09-21T05:44:56.248Z,1.50
2022-09-21T05:48:29.580Z,0.90
2022-09-21T05:51:40.554Z,1.17
2022-09-21T05:55:11.679Z,1.40
2022-09-21T05:59:00.535Z,1.40
2022-09-21T06:02:29.002Z,1.33
2022-09-21T06:05:52.950Z,1.63
2022-09-21T06:08:58.403Z,1.20
2022-09-21T06:12:22.129Z,1.23
2022-09-21T06:15:27.805Z,1.27
2022-09-21T06:18:51.775Z,1.42
2022-09-21T06:21:57.538Z,1.75
2022-09-21T06:25:22.242Z,1.40
2022-09-21T06:28:28.239Z,1.73
2022-09-21T06:31:51.689Z,1.30
2022-09-21T06:34:57.073Z,1.40
2022-09-21T06:38:21.860Z,1.48
2022-09-21T06:41:27.109Z,1.45
2022-09-21T06:44:50.597Z,1.50
2022-09-21T06:47:57.126Z,1.38
2022-09-21T06:51:24.438Z,2.08
2022-09-21T06:54:30.300Z,2.40
2022-09-21T06:57:38.321Z,1.42
2022-09-21T07:00:43.720Z,1.38
2022-09-21T07:03:52.159Z,1.48
2022-09-21T07:06:58.548Z,1.42
2022-09-21T07:10:13.114Z,1.50
2022-09-21T07:13:20.161Z,1.50
2022-09-21T07:16:25.564Z,1.38
2022-09-21T07:19:30.974Z,1.02
2022-09-21T07:22:37.102Z,1.35
2022-09-21T07:25:44.565Z,1.00
2022-09-21T07:28:50.343Z,0.88
2022-09-21T07:31:56.319Z,0.90
2022-09-21T07:35:02.053Z,1.30
2022-09-21T07:38:09.083Z,1.23
2022-09-21T07:41:15.095Z,1.13
2022-09-21T07:44:22.929Z,1.10
2022-09-21T07:47:28.733Z,1.48
2022-09-21T07:50:34.595Z,0.85
2022-09-21T07:53:42.371Z,0.95
2022-09-21T07:57:07.930Z,1.20
2022-09-21T08:00:13.680Z,0.75
2022-09-21T08:03:19.275Z,0.82
2022-09-21T08:06:27.742Z,1.02
2022-09-21T08:09:33.328Z,0.80
2022-09-21T08:12:39.287Z,0.90
2022-09-21T08:15:49.682Z,0.82
2022-09-21T08:18:56.292Z,0.77
2022-09-21T08:22:02.451Z,0.63
2022-09-21T08:25:08.757Z,0.82
2022-09-21T08:28:15.076Z,0.68
2022-09-21T08:31:22.683Z,0.80
2022-09-21T08:34:28.276Z,0.80
2022-09-21T08:37:36.291Z,0.75
2022-09-21T08:40:42.167Z,0.90
2022-09-21T08:44:11.231Z,0.70
2022-09-21T08:47:33.480Z,0.75
2022-09-21T08:50:47.225Z,0.70
2022-09-21T08:53:57.264Z,0.88
2022-09-21T08:57:06.325Z,1.30
2022-09-21T09:00:18.870Z,0.88
2022-09-21T09:03:43.282Z,1.77
2022-09-21T09:07:04.619Z,0.75
2022-09-21T09:10:36.926Z,0.68
2022-09-21T09:14:00.897Z,1.00
2022-09-21T09:17:18.316Z,1.13
2022-09-21T09:20:56.864Z,0.70
2022-09-21T09:24:27.642Z,0.68
2022-09-21T09:27:41.454Z,0.80
2022-09-21T09:30:53.648Z,1.40
2022-09-21T09:34:10.393Z,0.85
2022-09-21T09:37:18.214Z,1.23
2022-09-21T09:40:54.312Z,0.55
2022-09-21T09:44:15.928Z,0.80
2022-09-21T09:47:50.494Z,1.02
2022-09-21T09:50:56.192Z,0.80
2022-09-21T09:54:01.478Z,0.70
2022-09-21T09:57:10.010Z,0.70
2022-09-21T10:00:18.837Z,0.68
2022-09-21T10:03:27.363Z,0.75
2022-09-21T10:06:33.897Z,0.70
2022-09-21T10:09:39.073Z,0.80
2022-09-21T10:12:47.548Z,0.70
2022-09-21T10:15:57.526Z,0.95
2022-09-21T10:19:03.121Z,1.00
2022-09-21T10:22:20.464Z,0.88
2022-09-21T10:25:26.081Z,0.65
2022-09-21T10:28:32.102Z,1.00
2022-09-21T10:31:37.911Z,0.88
2022-09-21T10:35:08.127Z,1.35
2022-09-21T10:38:22.407Z,0.65
2022-09-21T10:41:28.499Z,0.52
2022-09-21T10:44:41.611Z,1.05
2022-09-21T10:47:51.010Z,0.70
2022-09-21T10:50:57.878Z,0.70
2022-09-21T10:54:09.378Z,0.50
2022-09-21T10:57:21.794Z,0.40
2022-09-21T11:00:29.983Z,0.60
2022-09-21T11:03:56.929Z,0.47
2022-09-21T11:07:29.073Z,0.60
2022-09-21T11:10:44.358Z,0.40
2022-09-21T11:13:58.022Z,1.48
2022-09-21T11:17:08.574Z,0.45
2022-09-21T11:20:52.823Z,0.47
2022-09-21T11:24:10.827Z,0.50
2022-09-21T11:27:33.914Z,0.40
2022-09-21T11:31:18.116Z,0.30
2022-09-21T11:34:47.852Z,0.40
2022-09-21T11:38:06.279Z,0.38
2022-09-21T11:41:21.131Z,0.30
2022-09-21T11:44:50.433Z,0.57
2022-09-21T11:48:04.287Z,0.35
2022-09-21T11:51:37.916Z,1.42
2022-09-21T11:55:01.175Z,0.52
2022-09-21T11:58:19.177Z,0.30
2022-09-21T12:01:37.215Z,0.50
2022-09-21T12:05:03.257Z,0.40
2022-09-21T12:08:26.908Z,0.55
2022-09-21T12:12:07.704Z,0.77
2022-09-21T12:15:30.564Z,0.55
2022-09-21T12:19:12.551Z,0.40
2022-09-21T12:22:50.185Z,0.47
2022-09-21T12:26:15.752Z,0.30
2022-09-21T12:29:35.285Z,0.40
2022-09-21T12:33:02.269Z,0.32
2022-09-21T12:36:28.676Z,0.68
2022-09-21T12:39:52.281Z,0.90
2022-09-21T12:43:15.907Z,0.57
2022-09-21T12:46:52.604Z,0.68
2022-09-21T12:50:28.113Z,0.55
2022-09-21T12:53:54.033Z,0.43
2022-09-21T12:57:53.748Z,0.50
2022-09-21T13:01:21.950Z,0.45
2022-09-21T13:04:30.701Z,0.43
2022-09-21T13:08:06.821Z,0.60
2022-09-21T13:11:13.726Z,0.40
2022-09-21T13:14:37.381Z,0.40
2022-09-21T13:17:42.734Z,0.50
2022-09-21T13:21:07.705Z,0.52
2022-09-21T13:24:31.267Z,0.55
2022-09-21T13:28:14.224Z,0.52
2022-09-21T13:31:58.160Z,0.35
2022-09-21T13:35:41.356Z,0.43
2022-09-21T13:38:48.350Z,0.43
2022-09-21T13:42:16.170Z,0.50
2022-09-21T13:45:23.313Z,0.40
2022-09-21T13:48:47.776Z,0.40
2022-09-21T13:52:00.457Z,0.40
2022-09-21T13:55:25.399Z,0.52
2022-09-21T13:58:40.703Z,0.50
2022-09-21T14:02:04.790Z,0.80
2022-09-21T14:05:23.743Z,0.40
2022-09-21T14:08:52.213Z,0.40
2022-09-21T14:12:09.587Z,0.60
2022-09-21T14:15:53.565Z,0.47
2022-09-21T14:19:00.394Z,0.60
2022-09-21T14:22:26.949Z,0.50
2022-09-21T14:25:56.832Z,0.93
2022-09-21T14:29:39.230Z,0.35
2022-09-21T14:33:23.634Z,0.40
2022-09-21T14:36:52.007Z,1.40
2022-09-21T14:39:59.466Z,0.60
2022-09-21T14:43:28.558Z,0.60
2022-09-21T14:46:46.498Z,0.43
2022-09-21T14:50:35.413Z,0.73
2022-09-21T14:54:18.284Z,0.50
2022-09-21T14:58:00.835Z,0.43
2022-09-21T15:01:41.187Z,0.65
2022-09-21T15:05:27.058Z,0.63
2022-09-21T15:09:09.613Z,0.43
2022-09-21T15:12:41.561Z,0.50
2022-09-21T15:16:13.108Z,1.15
2022-09-21T15:19:37.811Z,0.40
2022-09-21T15:22:44.496Z,0.73
2022-09-21T15:26:09.871Z,0.50
2022-09-21T15:29:31.854Z,0.50
2022-09-21T15:33:00.598Z,0.40
2022-09-21T15:36:09.370Z,0.55
2022-09-21T15:39:30.030Z,0.65
2022-09-21T15:43:02.400Z,0.70
2022-09-21T15:46:12.374Z,1.17
2022-09-21T15:49:36.966Z,1.30
2022-09-21T15:52:52.768Z,0.88
2022-09-21T15:56:27.992Z,0.80
2022-09-21T15:59:34.168Z,0.50
2022-09-21T16:02:59.219Z,0.65
2022-09-21T16:06:29.677Z,1.20
2022-09-21T16:09:46.424Z,1.30
2022-09-21T16:12:51.920Z,0.57
2022-09-21T16:16:06.787Z,1.20
2022-09-21T16:19:12.718Z,0.50
2022-09-21T16:22:31.680Z,0.40
2022-09-21T16:25:38.635Z,0.60
2022-09-21T16:28:43.941Z,1.85
2022-09-21T16:31:50.727Z,2.45
2022-09-21T16:35:29.550Z,1.70
2022-09-21T16:38:34.936Z,1.02
2022-09-21T16:41:44.863Z,1.50
2022-09-21T16:44:51.068Z,1.10
2022-09-21T16:47:58.113Z,0.60
2022-09-21T16:51:04.278Z,1.02
2022-09-21T16:54:10.122Z,1.10
2022-09-21T16:57:16.003Z,1.00
2022-09-21T17:00:22.400Z,1.73
2022-09-21T17:03:29.623Z,1.00
2022-09-21T17:06:36.108Z,1.30
2022-09-21T17:09:44.969Z,2.33
2022-09-21T17:12:52.383Z,1.75
2022-09-21T17:15:59.092Z,1.15
2022-09-21T17:19:04.532Z,1.10
2022-09-21T17:22:17.672Z,0.82
2022-09-21T17:25:26.511Z,0.80
2022-09-21T17:28:32.641Z,0.95
2022-09-21T17:31:39.155Z,0.88
2022-09-21T17:34:46.487Z,0.90
2022-09-21T17:37:52.039Z,1.05
2022-09-21T17:40:58.782Z,0.82
2022-09-21T17:44:27.498Z,1.23
2022-09-21T17:47:34.307Z,0.63
2022-09-21T17:50:40.233Z,0.90
2022-09-21T17:53:45.653Z,1.52
2022-09-21T17:57:22.190Z,1.33
2022-09-21T18:11:11.520Z,1.38
2022-09-21T18:20:22.294Z,2.33
2022-09-21T18:28:32.305Z,2.47
2022-09-21T18:32:00.166Z,1.45
2022-09-21T18:35:41.303Z,1.10
2022-09-21T18:39:16.595Z,1.08
2022-09-21T18:42:46.804Z,1.67
2022-09-21T18:46:10.458Z,1.13
2022-09-21T18:50:05.040Z,1.20
2022-09-21T18:53:57.453Z,1.10
2022-09-21T18:57:22.730Z,1.00
2022-09-21T19:00:39.874Z,1.10
2022-09-21T19:04:00.949Z,1.20
2022-09-21T19:07:54.465Z,1.20
2022-09-21T19:11:26.453Z,1.58
2022-09-21T19:15:10.155Z,1.00
2022-09-21T19:18:40.654Z,1.45
2022-09-21T19:22:16.676Z,1.30
2022-09-21T19:25:50.166Z,1.67
2022-09-21T19:29:54.605Z,3.88
2022-09-21T19:33:48.446Z,2.58
2022-09-21T19:37:01.621Z,1.77
2022-09-21T19:40:17.391Z,1.67
2022-09-21T19:43:41.078Z,1.63
2022-09-21T19:47:20.606Z,1.63
2022-09-21T19:50:57.004Z,1.55
2022-09-21T19:54:32.566Z,1.70
2022-09-21T19:58:03.052Z,1.75
2022-09-21T20:01:21.336Z,1.52
2022-09-21T20:05:00.624Z,1.55
2022-09-21T20:08:22.664Z,1.80
2022-09-21T20:11:46.649Z,2.25
2022-09-21T20:15:15.236Z,2.00
2022-09-21T20:18:37.796Z,1.70
2022-09-21T20:21:47.868Z,1.67
2022-09-21T20:25:07.548Z,2.35
2022-09-21T20:28:16.948Z,2.25
2022-09-21T20:31:27.024Z,2.00
2022-09-21T20:34:33.698Z,2.42
2022-09-21T20:37:39.053Z,1.88
2022-09-21T20:40:46.321Z,2.33
2022-09-21T20:43:51.900Z,2.35
2022-09-21T20:46:57.815Z,2.25
2022-09-21T20:50:03.756Z,2.42
2022-09-21T20:53:10.169Z,2.65
2022-09-21T20:56:15.750Z,2.65
2022-09-21T20:59:21.570Z,2.22
2022-09-21T21:02:26.959Z,2.10
2022-09-21T21:05:33.305Z,2.80
2022-09-21T21:08:38.846Z,2.30
2022-09-21T21:11:44.493Z,1.83
2022-09-21T21:14:49.841Z,2.50
2022-09-21T21:17:55.580Z,3.08
2022-09-21T21:21:04.361Z,2.25
2022-09-21T21:24:28.643Z,2.08
2022-09-21T21:27:34.184Z,2.13
2022-09-21T21:30:39.648Z,2.20
2022-09-21T21:33:44.865Z,1.60
2022-09-21T21:36:50.239Z,1.95
2022-09-21T21:39:56.637Z,2.30
2022-09-21T21:43:03.897Z,2.05
2022-09-21T21:46:10.819Z,1.60
2022-09-21T21:49:15.917Z,3.83
2022-09-21T21:52:21.494Z,2.40
2022-09-21T21:55:28.993Z,1.83
2022-09-21T21:58:35.096Z,1.67
2022-09-21T22:01:40.833Z,2.10
2022-09-21T22:04:46.049Z,1.90
2022-09-21T22:07:51.510Z,1.48
2022-09-21T22:10:56.793Z,3.00
2022-09-21T22:14:03.610Z,2.60
2022-09-21T22:17:09.533Z,1.80
2022-09-21T22:20:15.139Z,1.95
2022-09-21T22:23:21.083Z,2.22
2022-09-21T22:26:29.506Z,3.30
2022-09-21T22:29:36.294Z,1.85
2022-09-21T22:32:41.961Z,2.13
2022-09-21T22:35:47.650Z,2.10
2022-09-21T22:38:54.044Z,1.50
2022-09-21T22:42:00.320Z,1.90
2022-09-21T22:45:05.708Z,1.50
2022-09-21T22:48:11.290Z,1.73
2022-09-21T22:51:18.777Z,1.60
2022-09-21T22:54:24.408Z,2.00
2022-09-21T22:57:29.892Z,2.03
2022-09-21T23:00:36.750Z,1.98
2022-09-21T23:03:42.820Z,3.00
2022-09-21T23:06:49.809Z,2.20
2022-09-21T23:09:55.565Z,2.20
2022-09-21T23:13:01.397Z,2.28
2022-09-21T23:16:09.664Z,2.10
2022-09-21T23:19:17.892Z,1.77
2022-09-21T23:22:24.723Z,1.80
2022-09-21T23:25:30.313Z,2.70
2022-09-21T23:28:36.845Z,2.03
2022-09-21T23:31:45.466Z,1.75
2022-09-21T23:34:52.187Z,2.13
2022-09-21T23:37:57.826Z,2.13
2022-09-21T23:41:21.011Z,2.22
2022-09-21T23:44:26.389Z,2.05
2022-09-21T23:47:31.859Z,2.50
2022-09-21T23:50:37.087Z,2.67
2022-09-21T23:53:43.670Z,2.50
2022-09-21T23:56:49.084Z,2.35
2022-09-21T23:59:54.353Z,2.70
